Time;durP1;ratioP1;P1;durP2;ratioP2;P2;SDS_P1;SDS_P2;PMS_P1;PMS_P2;Temp;Humidity;BMP_temperature;BMP_pressure;BME280_temperature;BME280_humidity;BME280_pressure;Samples;Min_cycle;Max_cycle;Signal;HPM_P1;HPM_P2
2021/12/16 00:07:26;;;;;;;;;;;;;;;;;;5094251;28;19916;-76
2021/12/16 00:09:32;;;;;;;;;;;;;;;;;;5086831;28;19955;-76
2021/12/16 00:33:41;;;;;;;;;;;;;;;;;;5092849;28;19916;-76
2021/12/16 00:36:07;;;;;;;;;;;;;;;;;;5093013;28;19982;-76
2021/12/16 00:38:33;;;;;;;;;;;;;;;;;;5093516;28;20369;-76
2021/12/16 00:41:00;;;;;;;;;;;;;;;;;;5093819;28;19916;-76
2021/12/16 00:43:35;;;;;;;;;;;;;;;;;;5093886;28;19916;-76
2021/12/16 00:49:03;;;;;;;;;;;;;;;;;;5093681;28;19924;-77
2021/12/16 00:54:13;;;;;;;;;;;;;;;;;;5092653;28;19963;-77
2021/12/16 00:56:41;;;;;;;;;;;;;;;;;;5092427;28;19927;-77
2021/12/16 00:59:09;;;;;;;;;;;;;;;;;;5092424;28;20007;-77
2021/12/16 01:34:52;;;;;;;;;;;;;;;;;;5096199;28;19966;-76
2021/12/16 01:40:06;;;;;;;;;;;;;;;;;;5091871;28;19970;-76
2021/12/16 01:50:41;;;;;;;;;;;;;;;;;;5076834;28;20466;-76
2021/12/16 01:53:24;;;;;;;;;;;;;;;;;;5075472;28;20378;-77
2021/12/16 01:56:14;;;;;;;;;;;;;;;;;;5076052;28;21179;-77
2021/12/16 01:58:39;;;;;;;;;;;;;;;;;;5074873;28;19916;-77
2021/12/16 02:03:47;;;;;;;;;;;;;;;;;;5076661;28;19916;-77
2021/12/16 02:06:44;;;;;;;;;;;;;;;;;;5084815;28;20362;-77
2021/12/16 02:09:17;;;;;;;;;;;;;;;;;;5096828;28;20437;-76
2021/12/16 02:11:55;;;;;;;;;;;;;;;;;;5078537;28;19969;-76
2021/12/16 02:35:41;;;;;;;;;;;;;;;;;;5094986;28;20377;-76
2021/12/16 02:38:07;;;;;;;;;;;;;;;;;;5078106;28;19930;-76
2021/12/16 02:40:33;;;;;;;;;;;;;;;;;;5096065;28;19916;-77
2021/12/16 02:43:21;;;;;;;;;;;;;;;;;;5093984;28;19941;-76
2021/12/16 02:48:39;;;;;;;;;;;;;;;;;;5095826;28;19920;-76
2021/12/16 02:51:07;;;;;;;;;;;;;;;;;;5078118;28;19999;-76
2021/12/16 02:53:34;;;;;;;;;;;;;;;;;;5078017;28;20370;-76
2021/12/16 02:55:59;;;;;;;;;;;;;;;;;;5094527;28;19912;-77
2021/12/16 02:58:25;;;;;;;;;;;;;;;;;;5094496;28;20062;-76
2021/12/16 03:01:05;;;;;;;;;;;;;;;;;;5094464;28;19920;-77
2021/12/16 03:03:30;;;;;;;;;;;;;;;;;;5094367;28;20010;-76
2021/12/16 03:05:58;;;;;;;;;;;;;;;;;;5095614;28;19977;-76
2021/12/16 03:08:25;;;;;;;;;;;;;;;;;;5093320;28;19923;-76
2021/12/16 03:13:32;;;;;;;;;;;;;;;;;;5094247;28;20328;-76
2021/12/16 03:16:10;;;;;;;;;;;;;;;;;;5094317;28;19916;-76
2021/12/16 03:19:03;;;;;;;;;;;;;;;;;;5077102;28;20007;-76
2021/12/16 03:21:34;;;;;;;;;;;;;;;;;;5093835;28;19920;-76
2021/12/16 03:24:27;;;;;;;;;;;;;;;;;;5093919;28;20010;-76
2021/12/16 03:34:59;;;;;;;;;;;;;;;;;;5095073;28;19968;-77
2021/12/16 03:37:26;;;;;;;;;;;;;;;;;;5093331;28;19916;-77
2021/12/16 03:39:54;;;;;;;;;;;;;;;;;;5093894;28;20018;-77
2021/12/16 03:42:31;;;;;;;;;;;;;;;;;;5092353;28;19916;-76
2021/12/16 03:45:04;;;;;;;;;;;;;;;;;;5093508;28;20269;-77
2021/12/16 03:47:34;;;;;;;;;;;;;;;;;;5093198;28;19920;-76
2021/12/16 03:50:00;;;;;;;;;;;;;;;;;;5093371;28;19923;-76
2021/12/16 03:52:27;;;;;;;;;;;;;;;;;;5093377;28;20003;-77
2021/12/16 03:54:54;;;;;;;;;;;;;;;;;;5093359;28;19969;-76
2021/12/16 03:57:23;;;;;;;;;;;;;;;;;;5093046;28;19923;-76
2021/12/16 03:59:49;;;;;;;;;;;;;;;;;;5093356;28;20014;-77
2021/12/16 04:02:26;;;;;;;;;;;;;;;;;;5092608;28;19920;-76
2021/12/16 04:04:54;;;;;;;;;;;;;;;;;;5093147;28;19924;-77
2021/12/16 04:07:22;;;;;;;;;;;;;;;;;;5093254;28;19951;-77
2021/12/16 04:10:09;;;;;;;;;;;;;;;;;;5093317;28;19923;-76
2021/12/16 04:12:34;;;;;;;;;;;;;;;;;;5093202;28;20010;-76
2021/12/16 04:15:00;;;;;;;;;;;;;;;;;;5092863;28;19955;-76
2021/12/16 04:17:30;;;;;;;;;;;;;;;;;;5091932;28;19916;-77
2021/12/16 04:20:02;;;;;;;;;;;;;;;;;;5092946;28;19920;-77
2021/12/16 04:22:35;;;;;;;;;;;;;;;;;;5092682;28;20293;-77
2021/12/16 04:25:06;;;;;;;;;;;;;;;;;;5092844;28;20338;-77
2021/12/16 04:27:33;;;;;;;;;;;;;;;;;;5092900;28;19916;-76
2021/12/16 04:29:58;;;;;;;;;;;;;;;;;;5092794;28;19916;-77
2021/12/16 04:32:24;;;;;;;;;;;;;;;;;;5094174;28;20008;-77
2021/12/16 04:34:50;;;;;;;;;;;;;;;;;;5092500;28;19965;-76
2021/12/16 04:37:17;;;;;;;;;;;;;;;;;;5092708;28;19916;-77
2021/12/16 04:39:44;;;;;;;;;;;;;;;;;;5092765;28;19920;-77
2021/12/16 04:42:11;;;;;;;;;;;;;;;;;;5092908;28;19916;-76
2021/12/16 04:44:39;;;;;;;;;;;;;;;;;;5092677;28;19924;-76
2021/12/16 04:47:07;;;;;;;;;;;;;;;;;;5092362;28;19920;-76
2021/12/16 04:49:34;;;;;;;;;;;;;;;;;;5092001;28;19916;-76
2021/12/16 04:52:03;;;;;;;;;;;;;;;;;;5092470;28;20015;-76
2021/12/16 04:54:31;;;;;;;;;;;;;;;;;;5092322;28;19920;-76
2021/12/16 04:56:58;;;;;;;;;;;;;;;;;;5092596;28;20340;-76
2021/12/16 04:59:24;;;;;;;;;;;;;;;;;;5092453;28;19920;-77
2021/12/16 05:01:52;;;;;;;;;;;;;;;;;;5092494;28;20393;-77
2021/12/16 05:04:28;;;;;;;;;;;;;;;;;;5091507;28;20041;-76
2021/12/16 05:06:53;;;;;;;;;;;;;;;;;;5093887;28;20014;-77
2021/12/16 05:09:58;;;;;;;;;;;;;;;;;;5092532;28;19916;-77
2021/12/16 05:12:08;;;;;;;;;;;;;;;;;;5092065;28;20277;-76
2021/12/16 05:14:33;;;;;;;;;;;;;;;;;;5092478;28;19950;-76
2021/12/16 05:16:59;;;;;;;;;;;;;;;;;;5091905;28;20009;-76
2021/12/16 05:19:25;;;;;;;;;;;;;;;;;;5092406;28;19927;-77
2021/12/16 05:24:14;;;;;;;;;;;;;;;;;;5092316;28;19917;-76
2021/12/16 05:24:43;;;;;;;;;;;;;;;;;;5093464;28;20320;-77
2021/12/16 05:27:17;;;;;;;;;;;;;;;;;;5091905;28;20002;-77
2021/12/16 05:29:44;;;;;;;;;;;;;;;;;;5092078;28;19920;-77
2021/12/16 05:32:11;;;;;;;;;;;;;;;;;;5092007;28;19924;-76
2021/12/16 05:34:37;;;;;;;;;;;;;;;;;;5091564;28;19916;-77
2021/12/16 05:37:04;;;;;;;;;;;;;;;;;;5092025;28;19916;-76
2021/12/16 05:39:31;;;;;;;;;;;;;;;;;;5092066;28;19986;-77
2021/12/16 05:42:13;;;;;;;;;;;;;;;;;;5092225;28;20370;-76
2021/12/16 05:44:39;;;;;;;;;;;;;;;;;;5092000;28;19995;-77
2021/12/16 05:47:04;;;;;;;;;;;;;;;;;;5091875;28;19920;-77
2021/12/16 05:49:30;;;;;;;;;;;;;;;;;;5092449;28;19916;-76
2021/12/16 05:51:56;;;;;;;;;;;;;;;;;;5090912;28;19920;-76
2021/12/16 05:54:21;;;;;;;;;;;;;;;;;;5091205;28;19916;-76
2021/12/16 05:57:03;;;;;;;;;;;;;;;;;;5091772;28;19951;-77
2021/12/16 05:59:29;;;;;;;;;;;;;;;;;;5091328;28;19974;-76
2021/12/16 06:01:54;;;;;;;;;;;;;;;;;;5092434;28;19916;-77
2021/12/16 06:04:27;;;;;;;;;;;;;;;;;;5094635;28;19923;-77
2021/12/16 06:06:56;;;;;;;;;;;;;;;;;;5095548;28;19965;-77
2021/12/16 06:09:22;;;;;;;;;;;;;;;;;;5095442;28;19919;-77
2021/12/16 06:11:51;;;;;;;;;;;;;;;;;;5095472;28;20344;-77
2021/12/16 06:14:47;;;;;;;;;;;;;;;;;;5096627;28;20266;-77
2021/12/16 06:28:09;;;;;;;;;;;;;;;;;;5095312;28;19920;-77
2021/12/16 06:30:37;;;;;;;;;;;;;;;;;;5096368;28;19916;-76
2021/12/16 06:33:07;;;;;;;;;;;;;;;;;;5093959;28;19916;-77
2021/12/16 06:35:32;;;;;;;;;;;;;;;;;;5095934;28;19916;-77
2021/12/16 06:38:00;;;;;;;;;;;;;;;;;;5095160;28;19916;-77
2021/12/16 06:40:39;;;;;;;;;;;;;;;;;;5094623;28;20003;-77
2021/12/16 06:43:27;;;;;;;;;;;;;;;;;;5095758;28;20289;-77
2021/12/16 06:45:55;;;;;;;;;;;;;;;;;;5094782;28;20014;-77
2021/12/16 06:48:26;;;;;;;;;;;;;;;;;;5095894;28;20270;-77
2021/12/16 06:50:59;;;;;;;;;;;;;;;;;;5095991;28;20360;-76
2021/12/16 06:53:33;;;;;;;;;;;;;;;;;;5094758;28;19931;-77
2021/12/16 06:56:14;;;;;;;;;;;;;;;;;;5095985;28;19927;-76
2021/12/16 06:58:46;;;;;;;;;;;;;;;;;;5095836;28;20067;-76
2021/12/16 07:01:19;;;;;;;;;;;;;;;;;;5095322;28;20007;-77
2021/12/16 07:03:48;;;;;;;;;;;;;;;;;;5094997;28;20011;-77
2021/12/16 07:06:22;;;;;;;;;;;;;;;;;;5095515;28;20305;-77
2021/12/16 07:08:49;;;;;;;;;;;;;;;;;;5095564;28;19950;-77
2021/12/16 07:11:15;;;;;;;;;;;;;;;;;;5095566;28;19916;-77
2021/12/16 07:13:42;;;;;;;;;;;;;;;;;;5095156;28;19923;-74
2021/12/16 07:16:11;;;;;;;;;;;;;;;;;;5095301;28;19917;-75
2021/12/16 07:18:37;;;;;;;;;;;;;;;;;;5095178;28;19916;-75
2021/12/16 07:21:03;;;;;;;;;;;;;;;;;;5095076;28;19920;-75
2021/12/16 07:23:29;;;;;;;;;;;;;;;;;;5095267;28;19920;-75
2021/12/16 07:25:55;;;;;;;;;;;;;;;;;;5095090;28;20383;-75
2021/12/16 07:28:20;;;;;;;;;;;;;;;;;;5093212;28;20397;-75
2021/12/16 07:30:46;;;;;;;;;;;;;;;;;;5095229;28;20010;-75
2021/12/16 07:33:12;;;;;;;;;;;;;;;;;;5095212;28;20312;-75
2021/12/16 07:35:39;;;;;;;;;;;;;;;;;;5086072;28;19924;-75
2021/12/16 07:38:05;;;;;;;;;;;;;;;;;;5074561;28;19917;-75
2021/12/16 07:40:33;;;;;;;;;;;;;;;;;;5073408;28;19999;-73
2021/12/16 07:45:32;;;;;;;;;;;;;;;;;;5074446;28;19917;-77
2021/12/16 07:47:58;;;;;;;;;;;;;;;;;;5074583;28;20274;-77
2021/12/16 07:50:24;;;;;;;;;;;;;;;;;;5074515;28;20369;-77
2021/12/16 07:52:50;;;;;;;;;;;;;;;;;;5074178;28;19970;-77
2021/12/16 07:55:16;;;;;;;;;;;;;;;;;;5073721;28;20016;-76
2021/12/16 07:57:41;;;;;;;;;;;;;;;;;;5074437;28;20018;-76
2021/12/16 08:00:09;;;;;;;;;;;;;;;;;;5074151;28;19921;-76
2021/12/16 08:02:38;;;;;;;;;;;;;;;;;;5074456;28;19917;-76
2021/12/16 08:05:04;;;;;;;;;;;;;;;;;;5077533;28;19924;-76
2021/12/16 08:07:30;;;;;;;;;;;;;;;;;;5093539;28;19962;-75
2021/12/16 08:09:55;;;;;;;;;;;;;;;;;;5094447;28;20340;-76
2021/12/16 08:12:20;;;;;;;;;;;;;;;;;;5093979;28;20399;-77
2021/12/16 08:14:46;;;;;;;;;;;;;;;;;;5094275;28;19916;-74
2021/12/16 08:17:12;;;;;;;;;;;;;;;;;;5092941;28;19916;-76
2021/12/16 08:19:37;;;;;;;;;;;;;;;;;;5094259;28;20270;-75
2021/12/16 08:22:04;;;;;;;;;;;;;;;;;;5094431;28;19919;-75
2021/12/16 08:24:29;;;;;;;;;;;;;;;;;;5093649;28;19934;-75
2021/12/16 08:26:54;;;;;;;;;;;;;;;;;;5093056;28;20010;-75
2021/12/16 08:29:20;;;;;;;;;;;;;;;;;;5093949;28;19916;-75
2021/12/16 08:31:46;;;;;;;;;;;;;;;;;;5093131;28;19916;-75
2021/12/16 08:34:12;;;;;;;;;;;;;;;;;;5093545;28;19962;-75
2021/12/16 08:36:37;;;;;;;;;;;;;;;;;;5093279;28;19916;-76
2021/12/16 08:39:07;;;;;;;;;;;;;;;;;;5094213;28;20270;-76
2021/12/16 08:41:34;;;;;;;;;;;;;;;;;;5094051;28;20010;-76
2021/12/16 08:44:00;;;;;;;;;;;;;;;;;;5094004;28;20018;-76
2021/12/16 08:46:27;;;;;;;;;;;;;;;;;;5092526;28;19951;-76
2021/12/16 08:48:53;;;;;;;;;;;;;;;;;;5093766;28;19916;-77
2021/12/16 08:51:21;;;;;;;;;;;;;;;;;;5093987;28;19927;-76
2021/12/16 08:53:47;;;;;;;;;;;;;;;;;;5093527;28;20402;-77
2021/12/16 08:56:13;;;;;;;;;;;;;;;;;;5093759;28;19959;-77
2021/12/16 08:58:38;;;;;;;;;;;;;;;;;;5093785;28;19920;-77
2021/12/16 09:01:06;;;;;;;;;;;;;;;;;;5093395;28;20382;-78
2021/12/16 09:03:31;;;;;;;;;;;;;;;;;;5090395;28;20377;-76
2021/12/16 09:05:57;;;;;;;;;;;;;;;;;;5078069;28;19916;-76
2021/12/16 09:08:22;;;;;;;;;;;;;;;;;;5092934;28;19916;-76
2021/12/16 09:10:48;;;;;;;;;;;;;;;;;;5093843;28;19920;-76
2021/12/16 09:13:15;;;;;;;;;;;;;;;;;;5093424;28;20293;-75
2021/12/16 09:15:51;;;;;;;;;;;;;;;;;;5093624;28;19938;-74
2021/12/16 09:18:18;;;;;;;;;;;;;;;;;;5093735;28;19970;-75
2021/12/16 09:20:44;;;;;;;;;;;;;;;;;;5093705;28;20274;-75
2021/12/16 09:23:09;;;;;;;;;;;;;;;;;;5093748;28;20378;-75
2021/12/16 09:25:36;;;;;;;;;;;;;;;;;;5093292;28;19920;-74
2021/12/16 09:28:02;;;;;;;;;;;;;;;;;;5093670;28;20271;-74
2021/12/16 09:30:29;;;;;;;;;;;;;;;;;;5093445;28;19941;-73
2021/12/16 09:32:58;;;;;;;;;;;;;;;;;;5093320;28;19916;-73
2021/12/16 09:35:25;;;;;;;;;;;;;;;;;;5093629;28;19923;-75
2021/12/16 09:37:51;;;;;;;;;;;;;;;;;;5096999;28;19920;-74
2021/12/16 09:40:21;;;;;;;;;;;;;;;;;;5096366;28;19962;-76
2021/12/16 09:42:46;;;;;;;;;;;;;;;;;;5095611;28;19916;-76
2021/12/16 09:45:13;;;;;;;;;;;;;;;;;;5094817;28;20379;-76
2021/12/16 09:47:39;;;;;;;;;;;;;;;;;;5096789;28;19974;-76
2021/12/16 09:50:05;;;;;;;;;;;;;;;;;;5097333;28;19948;-76
2021/12/16 09:52:31;;;;;;;;;;;;;;;;;;5097131;28;20391;-76
2021/12/16 09:54:56;;;;;;;;;;;;;;;;;;5096312;28;19916;-75
2021/12/16 09:57:22;;;;;;;;;;;;;;;;;;5095563;28;19916;-76
2021/12/16 09:59:47;;;;;;;;;;;;;;;;;;5096863;28;19920;-75
2021/12/16 10:02:14;;;;;;;;;;;;;;;;;;5097122;28;20006;-75
2021/12/16 10:04:40;;;;;;;;;;;;;;;;;;5096882;28;19916;-76
2021/12/16 10:07:08;;;;;;;;;;;;;;;;;;5095838;28;19916;-76
2021/12/16 10:09:33;;;;;;;;;;;;;;;;;;5096881;28;19923;-75
2021/12/16 10:12:01;;;;;;;;;;;;;;;;;;5096778;28;20278;-75
2021/12/16 10:19:39;;;;;;;;;;;;;;;;;;5096377;28;19966;-75
2021/12/16 10:22:19;;;;;;;;;;;;;;;;;;5096415;28;19916;-75
2021/12/16 10:24:45;;;;;;;;;;;;;;;;;;5096289;28;19916;-75
2021/12/16 10:27:14;;;;;;;;;;;;;;;;;;5094938;28;19916;-73
2021/12/16 10:29:39;;;;;;;;;;;;;;;;;;5095873;28;20339;-76
2021/12/16 10:32:05;;;;;;;;;;;;;;;;;;5095868;28;19919;-76
2021/12/16 10:34:31;;;;;;;;;;;;;;;;;;5095308;28;20058;-74
2021/12/16 10:36:57;;;;;;;;;;;;;;;;;;5095990;28;20374;-75
2021/12/16 10:39:25;;;;;;;;;;;;;;;;;;5095957;28;20442;-75
2021/12/16 10:41:53;;;;;;;;;;;;;;;;;;5096175;28;19922;-77
2021/12/16 10:44:23;;;;;;;;;;;;;;;;;;5095535;28;19965;-77
2021/12/16 10:47:01;;;;;;;;;;;;;;;;;;5095748;28;20013;-75
2021/12/16 10:49:49;;;;;;;;;;;;;;;;;;5093790;28;19916;-74
2021/12/16 10:52:20;;;;;;;;;;;;;;;;;;5095962;28;20035;-74
2021/12/16 10:54:48;;;;;;;;;;;;;;;;;;5096059;28;19959;-74
2021/12/16 10:57:15;;;;;;;;;;;;;;;;;;5095835;28;19916;-75
2021/12/16 10:59:44;;;;;;;;;;;;;;;;;;5095818;28;20342;-74
2021/12/16 11:02:28;;;;;;;;;;;;;;;;;;5094051;28;19999;-74
2021/12/16 11:04:53;;;;;;;;;;;;;;;;;;5093559;28;20003;-75
2021/12/16 11:07:24;;;;;;;;;;;;;;;;;;5094880;28;19970;-75
2021/12/16 11:10:00;;;;;;;;;;;;;;;;;;5095694;28;19969;-75
2021/12/16 11:12:29;;;;;;;;;;;;;;;;;;5093837;28;19985;-75
2021/12/16 11:15:06;;;;;;;;;;;;;;;;;;5094720;28;19916;-75
2021/12/16 11:17:35;;;;;;;;;;;;;;;;;;5094968;28;19916;-76
2021/12/16 11:20:04;;;;;;;;;;;;;;;;;;5095216;28;20269;-75
2021/12/16 11:22:32;;;;;;;;;;;;;;;;;;5095490;28;19916;-75
2021/12/16 11:25:09;;;;;;;;;;;;;;;;;;5095317;28;19916;-75
2021/12/16 11:27:35;;;;;;;;;;;;;;;;;;5094486;28;20512;-75
2021/12/16 11:30:19;;;;;;;;;;;;;;;;;;5095524;28;19912;-75
2021/12/16 11:32:47;;;;;;;;;;;;;;;;;;5095401;28;20412;-75
2021/12/16 11:35:32;;;;;;;;;;;;;;;;;;5092723;28;19912;-75
2021/12/16 11:38:03;;;;;;;;;;;;;;;;;;5093719;28;19966;-75
2021/12/16 11:40:47;;;;;;;;;;;;;;;;;;5094931;28;19930;-75
2021/12/16 11:43:12;;;;;;;;;;;;;;;;;;5094001;28;19970;-77
2021/12/16 11:45:39;;;;;;;;;;;;;;;;;;5091918;28;19928;-77
2021/12/16 11:48:05;;;;;;;;;;;;;;;;;;5082565;28;20050;-78
2021/12/16 11:50:35;;;;;;;;;;;;;;;;;;5083645;28;19952;-76
2021/12/16 11:53:01;;;;;;;;;;;;;;;;;;5083529;28;20006;-77
2021/12/16 11:55:26;;;;;;;;;;;;;;;;;;5081976;28;20363;-77
2021/12/16 11:57:54;;;;;;;;;;;;;;;;;;5084795;28;19970;-82
2021/12/16 12:00:21;;;;;;;;;;;;;;;;;;5089471;28;20006;-80
2021/12/16 12:02:48;;;;;;;;;;;;;;;;;;5088379;28;19969;-77
2021/12/16 12:05:32;;;;;;;;;;;;;;;;;;5087018;28;19924;-78
2021/12/16 12:08:00;;;;;;;;;;;;;;;;;;5089085;28;19923;-77
2021/12/16 12:10:51;;;;;;;;;;;;;;;;;;5086948;28;19915;-79
2021/12/16 12:13:24;;;;;;;;;;;;;;;;;;5083120;28;19961;-79
2021/12/16 12:15:54;;;;;;;;;;;;;;;;;;5086882;28;20413;-77
2021/12/16 12:18:30;;;;;;;;;;;;;;;;;;5083981;28;20027;-78
2021/12/16 12:21:13;;;;;;;;;;;;;;;;;;5085359;28;19927;-78
2021/12/16 12:23:39;;;;;;;;;;;;;;;;;;5080222;28;19986;-78
2021/12/16 12:26:04;;;;;;;;;;;;;;;;;;5075292;28;20278;-81
2021/12/16 12:28:29;;;;;;;;;;;;;;;;;;5076902;28;20007;-79
2021/12/16 12:30:55;;;;;;;;;;;;;;;;;;5076239;28;19923;-80
2021/12/16 12:33:20;;;;;;;;;;;;;;;;;;5082563;28;19916;-79
2021/12/16 12:35:45;;;;;;;;;;;;;;;;;;5079616;28;19977;-79
2021/12/16 12:38:11;;;;;;;;;;;;;;;;;;5076773;28;19962;-78
2021/12/16 12:40:39;;;;;;;;;;;;;;;;;;5095088;28;20018;-78
2021/12/16 12:43:05;;;;;;;;;;;;;;;;;;5096481;28;19969;-78
2021/12/16 12:45:34;;;;;;;;;;;;;;;;;;5095585;28;20293;-77
2021/12/16 12:48:01;;;;;;;;;;;;;;;;;;5095755;28;20380;-78
2021/12/16 12:50:29;;;;;;;;;;;;;;;;;;5096116;28;19916;-78
2021/12/16 12:52:55;;;;;;;;;;;;;;;;;;5095907;28;19999;-79
2021/12/16 12:55:32;;;;;;;;;;;;;;;;;;5095850;28;19969;-80
2021/12/16 12:58:04;;;;;;;;;;;;;;;;;;5097635;28;19999;-80
2021/12/16 13:00:37;;;;;;;;;;;;;;;;;;5097450;28;19920;-79
2021/12/16 13:03:07;;;;;;;;;;;;;;;;;;5095753;28;19919;-80
2021/12/16 13:05:34;;;;;;;;;;;;;;;;;;5093958;28;19916;-77
2021/12/16 13:08:02;;;;;;;;;;;;;;;;;;5095314;28;19924;-79
2021/12/16 13:10:30;;;;;;;;;;;;;;;;;;5094906;28;20358;-77
2021/12/16 13:13:17;;;;;;;;;;;;;;;;;;5098063;28;19942;-77
2021/12/16 13:15:52;;;;;;;;;;;;;;;;;;5098354;28;19938;-78
2021/12/16 13:23:58;;;;;;;;;;;;;;;;;;5101461;28;19924;-78
2021/12/16 13:26:38;;;;;;;;;;;;;;;;;;5077784;28;19962;-81
2021/12/16 13:29:13;;;;;;;;;;;;;;;;;;5076765;28;20377;-82
2021/12/16 13:31:46;;;;;;;;;;;;;;;;;;5078536;28;20014;-82
2021/12/16 13:37:40;;;;;;;;;;;;;;;;;;5061532;28;19959;-77
2021/12/16 13:40:18;;;;;;;;;;;;;;;;;;5077220;28;19920;-77
2021/12/16 13:42:43;;;;;;;;;;;;;;;;;;5097017;28;20397;-77
2021/12/16 13:45:16;;;;;;;;;;;;;;;;;;5096989;28;19920;-77
2021/12/16 14:00:04;;;;;;;;;;;;;;;;;;5076679;28;19959;-77
2021/12/16 14:10:04;;;;;;;;;;;;;;;;;;5096891;28;19923;-77
2021/12/16 14:23:28;;;;;;;;;;;;;;;;;;5095571;28;19916;-76
2021/12/16 14:26:17;;;;;;;;;;;;;;;;;;5096459;28;20279;-76
2021/12/16 14:40:06;;;;;;;;;;;;;;;;;;5096475;28;20358;-76
2021/12/16 14:45:28;;;;;;;;;;;;;;;;;;5096326;28;19916;-76
2021/12/16 14:50:28;;;;;;;;;;;;;;;;;;5096091;28;20290;-76
2021/12/16 14:52:54;;;;;;;;;;;;;;;;;;5094936;28;19915;-76
2021/12/16 14:55:21;;;;;;;;;;;;;;;;;;5095793;28;20342;-76
2021/12/16 14:57:49;;;;;;;;;;;;;;;;;;5095656;28;19916;-74
2021/12/16 15:00:21;;;;;;;;;;;;;;;;;;5096088;28;19924;-75
2021/12/16 15:02:48;;;;;;;;;;;;;;;;;;5095973;28;19916;-76
2021/12/16 15:05:47;;;;;;;;;;;;;;;;;;5094564;28;19920;-76
2021/12/16 15:08:47;;;;;;;;;;;;;;;;;;5051130;28;19939;-76
2021/12/16 15:11:18;;;;;;;;;;;;;;;;;;5095744;28;19987;-76
2021/12/16 15:13:53;;;;;;;;;;;;;;;;;;5095826;28;20018;-76
2021/12/16 15:16:36;;;;;;;;;;;;;;;;;;5095568;28;19969;-76
2021/12/16 15:36:40;;;;;;;;;;;;;;;;;;5095159;28;20385;-77
2021/12/16 15:44:46;;;;;;;;;;;;;;;;;;5080603;28;19947;-77
2021/12/16 15:47:11;;;;;;;;;;;;;;;;;;5084702;28;19924;-77
2021/12/16 15:49:36;;;;;;;;;;;;;;;;;;5084376;28;19942;-77
2021/12/16 15:52:02;;;;;;;;;;;;;;;;;;5083184;28;19920;-75
2021/12/16 15:54:32;;;;;;;;;;;;;;;;;;5085409;28;19916;-76
2021/12/16 15:56:58;;;;;;;;;;;;;;;;;;5084401;28;20366;-76
2021/12/16 15:59:28;;;;;;;;;;;;;;;;;;5083031;28;19921;-77
2021/12/16 16:01:54;;;;;;;;;;;;;;;;;;5084161;28;20305;-76
2021/12/16 16:04:21;;;;;;;;;;;;;;;;;;5084876;28;19920;-76
2021/12/16 16:06:48;;;;;;;;;;;;;;;;;;5084014;28;19924;-77
2021/12/16 16:09:15;;;;;;;;;;;;;;;;;;5083882;28;19916;-76
2021/12/16 16:11:46;;;;;;;;;;;;;;;;;;5080980;28;19920;-77
2021/12/16 16:14:12;;;;;;;;;;;;;;;;;;5083610;28;19916;-76
2021/12/16 16:16:43;;;;;;;;;;;;;;;;;;5083388;28;20411;-77
2021/12/16 16:19:10;;;;;;;;;;;;;;;;;;5084568;28;19924;-76
2021/12/16 16:21:37;;;;;;;;;;;;;;;;;;5083938;28;19962;-76
2021/12/16 16:24:23;;;;;;;;;;;;;;;;;;5082682;28;19974;-77
2021/12/16 16:26:49;;;;;;;;;;;;;;;;;;5071954;28;19916;-76
2021/12/16 16:29:19;;;;;;;;;;;;;;;;;;5082436;28;19916;-76
2021/12/16 16:31:46;;;;;;;;;;;;;;;;;;5082717;28;20003;-77
2021/12/16 16:34:13;;;;;;;;;;;;;;;;;;5084090;28;19919;-77
2021/12/16 16:36:44;;;;;;;;;;;;;;;;;;5084137;28;19970;-76
2021/12/16 16:39:11;;;;;;;;;;;;;;;;;;5082755;28;19958;-77
2021/12/16 16:41:41;;;;;;;;;;;;;;;;;;5082059;28;19923;-76
2021/12/16 16:44:11;;;;;;;;;;;;;;;;;;5076502;28;19916;-77
2021/12/16 16:46:42;;;;;;;;;;;;;;;;;;5071771;28;19916;-76
2021/12/16 16:49:10;;;;;;;;;;;;;;;;;;5084077;28;20405;-76
2021/12/16 16:51:46;;;;;;;;;;;;;;;;;;5093981;28;19963;-77
2021/12/16 16:54:18;;;;;;;;;;;;;;;;;;5093830;28;20382;-77
2021/12/16 16:56:57;;;;;;;;;;;;;;;;;;5094455;28;19918;-78
2021/12/16 16:59:25;;;;;;;;;;;;;;;;;;5094164;28;20349;-78
2021/12/16 17:01:51;;;;;;;;;;;;;;;;;;5094055;28;20431;-77
2021/12/16 17:04:17;;;;;;;;;;;;;;;;;;5094450;28;19908;-75
2021/12/16 17:06:45;;;;;;;;;;;;;;;;;;5094484;28;19916;-78
2021/12/16 17:09:10;;;;;;;;;;;;;;;;;;5094075;28;19927;-77
2021/12/16 17:11:40;;;;;;;;;;;;;;;;;;5093458;28;20009;-78
2021/12/16 17:14:15;;;;;;;;;;;;;;;;;;5094324;28;19916;-76
2021/12/16 17:19:32;;;;;;;;;;;;;;;;;;5093504;28;19968;-77
2021/12/16 17:21:57;;;;;;;;;;;;;;;;;;5094809;28;20054;-77
2021/12/16 17:24:27;;;;;;;;;;;;;;;;;;5093779;28;19963;-75
2021/12/16 17:27:06;;;;;;;;;;;;;;;;;;5093303;28;20346;-74
2021/12/16 17:29:37;;;;;;;;;;;;;;;;;;5092789;28;19959;-75
2021/12/16 17:32:07;;;;;;;;;;;;;;;;;;5093501;28;19923;-75
2021/12/16 17:34:37;;;;;;;;;;;;;;;;;;5074587;28;19920;-74
2021/12/16 17:37:06;;;;;;;;;;;;;;;;;;5093439;28;20316;-74
2021/12/16 17:39:38;;;;;;;;;;;;;;;;;;5093412;28;19927;-74
2021/12/16 17:42:14;;;;;;;;;;;;;;;;;;5092645;28;19951;-74
2021/12/16 17:44:39;;;;;;;;;;;;;;;;;;5092375;28;19920;-74
2021/12/16 17:47:08;;;;;;;;;;;;;;;;;;5092123;28;20334;-74
2021/12/16 17:49:33;;;;;;;;;;;;;;;;;;5093195;28;19916;-73
2021/12/16 17:52:00;;;;;;;;;;;;;;;;;;5105235;28;19919;-73
2021/12/16 17:54:29;;;;;;;;;;;;;;;;;;5113511;28;19961;-74
2021/12/16 17:56:55;;;;;;;;;;;;;;;;;;5106545;28;19916;-74
2021/12/16 17:59:29;;;;;;;;;;;;;;;;;;5096331;28;20375;-74
2021/12/16 18:01:54;;;;;;;;;;;;;;;;;;5096071;28;20327;-74
2021/12/16 18:04:21;;;;;;;;;;;;;;;;;;5095354;28;20057;-74
2021/12/16 18:06:50;;;;;;;;;;;;;;;;;;5096631;28;19916;-74
2021/12/16 18:09:18;;;;;;;;;;;;;;;;;;5095662;28;19923;-74
2021/12/16 18:11:52;;;;;;;;;;;;;;;;;;5095241;28;19916;-74
2021/12/16 18:14:35;;;;;;;;;;;;;;;;;;5094343;28;19923;-74
2021/12/16 18:17:05;;;;;;;;;;;;;;;;;;5077871;28;19923;-74
2021/12/16 18:19:33;;;;;;;;;;;;;;;;;;5096038;28;19920;-74
2021/12/16 18:21:59;;;;;;;;;;;;;;;;;;5096522;28;19999;-74
2021/12/16 18:24:39;;;;;;;;;;;;;;;;;;5095818;28;20015;-74
2021/12/16 18:27:05;;;;;;;;;;;;;;;;;;5095619;28;19935;-74
2021/12/16 18:29:35;;;;;;;;;;;;;;;;;;5096520;28;19920;-74
2021/12/16 18:32:00;;;;;;;;;;;;;;;;;;5092500;28;19916;-74
2021/12/16 18:34:28;;;;;;;;;;;;;;;;;;5085223;28;19916;-74
2021/12/16 18:36:54;;;;;;;;;;;;;;;;;;5086347;28;19917;-74
2021/12/16 18:39:19;;;;;;;;;;;;;;;;;;5085481;28;19931;-74
2021/12/16 18:41:47;;;;;;;;;;;;;;;;;;5084831;28;19916;-74
2021/12/16 18:44:42;;;;;;;;;;;;;;;;;;5084719;28;20358;-74
2021/12/16 18:47:25;;;;;;;;;;;;;;;;;;5071600;28;19921;-74
2021/12/16 18:49:55;;;;;;;;;;;;;;;;;;5084322;28;19920;-74
2021/12/16 18:54:55;;;;;;;;;;;;;;;;;;5084148;28;20423;-74
2021/12/16 18:57:21;;;;;;;;;;;;;;;;;;5086511;28;19912;-74
2021/12/16 18:59:48;;;;;;;;;;;;;;;;;;5095002;28;19962;-74
2021/12/16 19:02:15;;;;;;;;;;;;;;;;;;5095555;28;19916;-74
2021/12/16 19:04:42;;;;;;;;;;;;;;;;;;5094853;28;19916;-74
2021/12/16 19:07:11;;;;;;;;;;;;;;;;;;5095631;28;19971;-75
2021/12/16 19:09:37;;;;;;;;;;;;;;;;;;5094090;28;19923;-75
2021/12/16 19:12:06;;;;;;;;;;;;;;;;;;5095627;28;19986;-75
2021/12/16 19:14:35;;;;;;;;;;;;;;;;;;5094854;28;20339;-75
2021/12/16 19:17:01;;;;;;;;;;;;;;;;;;5094189;28;19916;-75
2021/12/16 19:19:28;;;;;;;;;;;;;;;;;;5094236;28;19923;-75
2021/12/16 19:21:54;;;;;;;;;;;;;;;;;;5074985;28;19916;-75
2021/12/16 19:24:20;;;;;;;;;;;;;;;;;;5074044;28;20377;-75
2021/12/16 19:26:45;;;;;;;;;;;;;;;;;;5084545;28;20320;-75
2021/12/16 19:29:11;;;;;;;;;;;;;;;;;;5095429;28;19916;-75
2021/12/16 19:31:38;;;;;;;;;;;;;;;;;;5094218;28;20002;-75
2021/12/16 19:34:05;;;;;;;;;;;;;;;;;;5093805;28;19923;-75
2021/12/16 19:36:31;;;;;;;;;;;;;;;;;;5094158;28;19938;-75
2021/12/16 19:38:56;;;;;;;;;;;;;;;;;;5095349;28;19916;-75
2021/12/16 19:41:24;;;;;;;;;;;;;;;;;;5095184;28;20337;-75
2021/12/16 19:43:50;;;;;;;;;;;;;;;;;;5094355;28;19935;-75
2021/12/16 19:46:15;;;;;;;;;;;;;;;;;;5093707;28;19916;-75
2021/12/16 19:48:41;;;;;;;;;;;;;;;;;;5093605;28;20281;-75
2021/12/16 19:51:11;;;;;;;;;;;;;;;;;;5094095;28;20389;-75
2021/12/16 19:53:36;;;;;;;;;;;;;;;;;;5094835;28;20389;-75
2021/12/16 19:56:03;;;;;;;;;;;;;;;;;;5093691;28;19917;-75
2021/12/16 19:58:29;;;;;;;;;;;;;;;;;;5093310;28;20014;-75
2021/12/16 20:01:00;;;;;;;;;;;;;;;;;;5093721;28;20007;-75
2021/12/16 20:03:27;;;;;;;;;;;;;;;;;;5094221;28;19923;-75
2021/12/16 20:05:54;;;;;;;;;;;;;;;;;;5093689;28;20308;-75
2021/12/16 20:08:20;;;;;;;;;;;;;;;;;;5094498;28;19920;-75
2021/12/16 20:10:48;;;;;;;;;;;;;;;;;;5088300;28;19917;-75
2021/12/16 20:13:15;;;;;;;;;;;;;;;;;;5082612;28;19948;-75
2021/12/16 20:15:43;;;;;;;;;;;;;;;;;;5094259;28;20294;-75
2021/12/16 20:18:10;;;;;;;;;;;;;;;;;;5093647;28;19912;-75
2021/12/16 20:20:39;;;;;;;;;;;;;;;;;;5092881;28;19920;-75
2021/12/16 20:23:06;;;;;;;;;;;;;;;;;;5080706;28;20399;-75
2021/12/16 20:25:35;;;;;;;;;;;;;;;;;;5082556;28;19916;-75
2021/12/16 20:28:03;;;;;;;;;;;;;;;;;;5093829;28;19912;-75
2021/12/16 20:30:33;;;;;;;;;;;;;;;;;;5094304;28;20524;-75
2021/12/16 20:33:02;;;;;;;;;;;;;;;;;;5093301;28;19950;-75
2021/12/16 20:35:49;;;;;;;;;;;;;;;;;;5094118;28;19916;-75
2021/12/16 20:38:16;;;;;;;;;;;;;;;;;;5083919;28;19919;-75
2021/12/16 20:40:47;;;;;;;;;;;;;;;;;;5093025;28;19920;-75